sensor_id;sensor_type;location;lat;lon;timestamp;P1;durP1;ratioP1;P2;durP2;ratioP2
5847;SDS011;8756;49.29324300;8.70599800;2023-04-24T00:00:10;8.77;;;2.60;;
5847;SDS011;8756;49.29324300;8.70599800;2023-04-24T00:02:40;9.00;;;2.90;;
5847;SDS011;8756;49.29324300;8.70599800;2023-04-24T00:05:12;9.10;;;3.07;;
5847;SDS011;8756;49.29324300;8.70599800;2023-04-24T00:07:39;8.93;;;2.83;;
5847;SDS011;8756;49.29324300;8.70599800;2023-04-24T00:10:06;9.00;;;2.73;;
5847;SDS011;8756;49.29324300;8.70599800;2023-04-24T00:12:33;9.50;;;3.20;;
5847;SDS011;8756;49.29324300;8.70599800;2023-04-24T00:14:59;9.10;;;2.80;;
5847;SDS011;8756;49.29324300;8.70599800;2023-04-24T00:17:25;8.90;;;2.73;;
5847;SDS011;8756;49.29324300;8.70599800;2023-04-24T00:19:51;8.87;;;2.70;;
5847;SDS011;8756;49.29324300;8.70599800;2023-04-24T00:22:23;9.90;;;3.30;;
5847;SDS011;8756;49.29324300;8.70599800;2023-04-24T00:24:52;9.37;;;3.20;;
5847;SDS011;8756;49.29324300;8.70599800;2023-04-24T00:27:19;9.53;;;3.03;;
5847;SDS011;8756;49.29324300;8.70599800;2023-04-24T00:29:45;9.10;;;2.90;;
5847;SDS011;8756;49.29324300;8.70599800;2023-04-24T00:32:11;9.70;;;3.03;;
5847;SDS011;8756;49.29324300;8.70599800;2023-04-24T00:34:36;9.00;;;2.87;;
5847;SDS011;8756;49.29324300;8.70599800;2023-04-24T00:37:02;9.83;;;2.93;;
5847;SDS011;8756;49.29324300;8.70599800;2023-04-24T00:39:28;8.90;;;2.77;;
5847;SDS011;8756;49.29324300;8.70599800;2023-04-24T00:41:54;9.10;;;2.90;;
5847;SDS011;8756;49.29324300;8.70599800;2023-04-24T00:44:20;9.90;;;2.93;;
5847;SDS011;8756;49.29324300;8.70599800;2023-04-24T00:46:46;10.23;;;2.77;;
5847;SDS011;8756;49.29324300;8.70599800;2023-04-24T00:49:16;9.97;;;2.93;;
5847;SDS011;8756;49.29324300;8.70599800;2023-04-24T00:51:43;9.60;;;3.13;;
5847;SDS011;8756;49.29324300;8.70599800;2023-04-24T00:54:10;9.43;;;2.87;;
5847;SDS011;8756;49.29324300;8.70599800;2023-04-24T00:56:37;9.10;;;2.93;;
5847;SDS011;8756;49.29324300;8.70599800;2023-04-24T00:59:05;9.90;;;3.40;;
5847;SDS011;8756;49.29324300;8.70599800;2023-04-24T01:01:31;9.10;;;2.90;;
5847;SDS011;8756;49.29324300;8.70599800;2023-04-24T01:03:57;8.97;;;2.87;;
5847;SDS011;8756;49.29324300;8.70599800;2023-04-24T01:06:24;12.13;;;3.30;;
5847;SDS011;8756;49.29324300;8.70599800;2023-04-24T01:08:54;9.40;;;3.10;;
5847;SDS011;8756;49.29324300;8.70599800;2023-04-24T01:11:23;9.30;;;2.90;;
5847;SDS011;8756;49.29324300;8.70599800;2023-04-24T01:13:50;9.50;;;3.10;;
5847;SDS011;8756;49.29324300;8.70599800;2023-04-24T01:16:16;9.07;;;2.67;;
5847;SDS011;8756;49.29324300;8.70599800;2023-04-24T01:18:44;9.00;;;3.07;;
5847;SDS011;8756;49.29324300;8.70599800;2023-04-24T01:21:10;8.97;;;2.53;;
5847;SDS011;8756;49.29324300;8.70599800;2023-04-24T01:23:41;9.50;;;2.50;;
5847;SDS011;8756;49.29324300;8.70599800;2023-04-24T01:26:08;10.63;;;2.70;;
5847;SDS011;8756;49.29324300;8.70599800;2023-04-24T01:28:34;9.40;;;2.90;;
5847;SDS011;8756;49.29324300;8.70599800;2023-04-24T01:31:00;10.67;;;3.40;;
5847;SDS011;8756;49.29324300;8.70599800;2023-04-24T01:33:26;9.23;;;2.80;;
5847;SDS011;8756;49.29324300;8.70599800;2023-04-24T01:35:52;9.37;;;3.30;;
5847;SDS011;8756;49.29324300;8.70599800;2023-04-24T01:38:18;10.60;;;3.17;;
5847;SDS011;8756;49.29324300;8.70599800;2023-04-24T01:40:44;11.57;;;3.10;;
5847;SDS011;8756;49.29324300;8.70599800;2023-04-24T01:43:10;9.57;;;3.27;;
5847;SDS011;8756;49.29324300;8.70599800;2023-04-24T01:45:37;9.30;;;2.50;;
5847;SDS011;8756;49.29324300;8.70599800;2023-04-24T01:48:02;11.60;;;2.90;;
5847;SDS011;8756;49.29324300;8.70599800;2023-04-24T01:50:28;9.00;;;2.60;;
5847;SDS011;8756;49.29324300;8.70599800;2023-04-24T01:52:55;9.37;;;2.70;;
5847;SDS011;8756;49.29324300;8.70599800;2023-04-24T01:55:21;9.00;;;2.80;;
5847;SDS011;8756;49.29324300;8.70599800;2023-04-24T01:57:47;8.83;;;2.43;;
5847;SDS011;8756;49.29324300;8.70599800;2023-04-24T02:00:13;9.80;;;3.20;;
5847;SDS011;8756;49.29324300;8.70599800;2023-04-24T02:02:39;8.70;;;2.33;;
5847;SDS011;8756;49.29324300;8.70599800;2023-04-24T02:05:06;10.70;;;3.33;;
5847;SDS011;8756;49.29324300;8.70599800;2023-04-24T02:07:33;11.23;;;2.93;;
5847;SDS011;8756;49.29324300;8.70599800;2023-04-24T02:09:59;9.07;;;2.70;;
5847;SDS011;8756;49.29324300;8.70599800;2023-04-24T02:12:24;9.10;;;2.83;;
5847;SDS011;8756;49.29324300;8.70599800;2023-04-24T02:14:50;9.10;;;2.90;;
5847;SDS011;8756;49.29324300;8.70599800;2023-04-24T02:17:16;9.60;;;2.73;;
5847;SDS011;8756;49.29324300;8.70599800;2023-04-24T02:19:42;9.07;;;3.03;;
5847;SDS011;8756;49.29324300;8.70599800;2023-04-24T02:22:08;10.43;;;3.10;;
5847;SDS011;8756;49.29324300;8.70599800;2023-04-24T02:24:33;9.40;;;3.00;;
5847;SDS011;8756;49.29324300;8.70599800;2023-04-24T02:26:59;9.20;;;2.80;;
5847;SDS011;8756;49.29324300;8.70599800;2023-04-24T02:29:25;9.20;;;2.90;;
5847;SDS011;8756;49.29324300;8.70599800;2023-04-24T02:31:50;10.23;;;3.20;;
5847;SDS011;8756;49.29324300;8.70599800;2023-04-24T02:34:16;9.50;;;3.00;;
5847;SDS011;8756;49.29324300;8.70599800;2023-04-24T02:36:42;10.57;;;3.40;;
5847;SDS011;8756;49.29324300;8.70599800;2023-04-24T02:39:08;9.37;;;3.60;;
5847;SDS011;8756;49.29324300;8.70599800;2023-04-24T02:41:33;9.30;;;2.30;;
5847;SDS011;8756;49.29324300;8.70599800;2023-04-24T02:43:59;9.07;;;2.90;;
5847;SDS011;8756;49.29324300;8.70599800;2023-04-24T02:46:25;8.63;;;2.57;;
5847;SDS011;8756;49.29324300;8.70599800;2023-04-24T02:48:50;9.40;;;2.93;;
5847;SDS011;8756;49.29324300;8.70599800;2023-04-24T02:51:16;9.07;;;3.30;;
5847;SDS011;8756;49.29324300;8.70599800;2023-04-24T02:53:42;9.27;;;3.17;;
5847;SDS011;8756;49.29324300;8.70599800;2023-04-24T02:56:08;8.77;;;2.33;;
5847;SDS011;8756;49.29324300;8.70599800;2023-04-24T02:58:34;9.20;;;3.20;;
5847;SDS011;8756;49.29324300;8.70599800;2023-04-24T03:01:00;8.93;;;2.90;;
5847;SDS011;8756;49.29324300;8.70599800;2023-04-24T03:03:26;9.20;;;3.20;;
5847;SDS011;8756;49.29324300;8.70599800;2023-04-24T03:05:51;9.33;;;3.30;;
5847;SDS011;8756;49.29324300;8.70599800;2023-04-24T03:08:17;9.20;;;3.40;;
5847;SDS011;8756;49.29324300;8.70599800;2023-04-24T03:10:43;8.97;;;3.03;;
5847;SDS011;8756;49.29324300;8.70599800;2023-04-24T03:13:09;8.93;;;3.13;;
5847;SDS011;8756;49.29324300;8.70599800;2023-04-24T03:15:34;10.30;;;2.63;;
5847;SDS011;8756;49.29324300;8.70599800;2023-04-24T03:18:00;10.50;;;3.20;;
5847;SDS011;8756;49.29324300;8.70599800;2023-04-24T03:20:27;9.70;;;3.60;;
5847;SDS011;8756;49.29324300;8.70599800;2023-04-24T03:22:56;9.70;;;2.60;;
5847;SDS011;8756;49.29324300;8.70599800;2023-04-24T03:25:22;8.90;;;2.80;;
5847;SDS011;8756;49.29324300;8.70599800;2023-04-24T03:27:47;9.20;;;3.10;;
5847;SDS011;8756;49.29324300;8.70599800;2023-04-24T03:30:13;9.53;;;3.40;;
5847;SDS011;8756;49.29324300;8.70599800;2023-04-24T03:32:39;9.37;;;2.90;;
5847;SDS011;8756;49.29324300;8.70599800;2023-04-24T03:35:05;12.70;;;3.50;;
5847;SDS011;8756;49.29324300;8.70599800;2023-04-24T03:37:33;9.80;;;3.30;;
5847;SDS011;8756;49.29324300;8.70599800;2023-04-24T03:39:59;9.47;;;3.30;;
5847;SDS011;8756;49.29324300;8.70599800;2023-04-24T03:42:25;9.33;;;3.40;;
5847;SDS011;8756;49.29324300;8.70599800;2023-04-24T03:44:50;9.80;;;3.70;;
5847;SDS011;8756;49.29324300;8.70599800;2023-04-24T03:47:16;9.77;;;3.60;;
5847;SDS011;8756;49.29324300;8.70599800;2023-04-24T03:49:42;9.90;;;3.47;;
5847;SDS011;8756;49.29324300;8.70599800;2023-04-24T03:52:07;9.40;;;2.93;;
5847;SDS011;8756;49.29324300;8.70599800;2023-04-24T03:54:33;9.80;;;3.10;;
5847;SDS011;8756;49.29324300;8.70599800;2023-04-24T03:56:59;9.20;;;3.50;;
5847;SDS011;8756;49.29324300;8.70599800;2023-04-24T03:59:25;9.33;;;3.07;;
5847;SDS011;8756;49.29324300;8.70599800;2023-04-24T04:01:50;9.33;;;3.27;;
5847;SDS011;8756;49.29324300;8.70599800;2023-04-24T04:04:16;8.83;;;2.70;;
5847;SDS011;8756;49.29324300;8.70599800;2023-04-24T04:06:42;9.50;;;3.50;;
5847;SDS011;8756;49.29324300;8.70599800;2023-04-24T04:09:09;11.33;;;3.00;;
5847;SDS011;8756;49.29324300;8.70599800;2023-04-24T04:11:35;9.27;;;3.00;;
5847;SDS011;8756;49.29324300;8.70599800;2023-04-24T04:14:01;9.90;;;4.10;;
5847;SDS011;8756;49.29324300;8.70599800;2023-04-24T04:16:27;8.90;;;2.90;;
5847;SDS011;8756;49.29324300;8.70599800;2023-04-24T04:18:52;9.07;;;2.90;;
5847;SDS011;8756;49.29324300;8.70599800;2023-04-24T04:21:18;10.30;;;3.57;;
5847;SDS011;8756;49.29324300;8.70599800;2023-04-24T04:23:44;9.50;;;3.50;;
5847;SDS011;8756;49.29324300;8.70599800;2023-04-24T04:26:10;11.50;;;3.53;;
5847;SDS011;8756;49.29324300;8.70599800;2023-04-24T04:28:37;10.20;;;3.90;;
5847;SDS011;8756;49.29324300;8.70599800;2023-04-24T04:31:04;9.57;;;3.70;;
5847;SDS011;8756;49.29324300;8.70599800;2023-04-24T04:33:30;10.73;;;3.60;;
5847;SDS011;8756;49.29324300;8.70599800;2023-04-24T04:35:56;9.53;;;3.90;;
5847;SDS011;8756;49.29324300;8.70599800;2023-04-24T04:38:22;9.80;;;3.90;;
5847;SDS011;8756;49.29324300;8.70599800;2023-04-24T04:40:48;10.50;;;4.30;;
5847;SDS011;8756;49.29324300;8.70599800;2023-04-24T04:43:13;10.80;;;4.20;;
5847;SDS011;8756;49.29324300;8.70599800;2023-04-24T04:45:42;10.73;;;3.90;;
5847;SDS011;8756;49.29324300;8.70599800;2023-04-24T04:48:09;9.70;;;3.67;;
5847;SDS011;8756;49.29324300;8.70599800;2023-04-24T04:50:37;11.47;;;4.00;;
5847;SDS011;8756;49.29324300;8.70599800;2023-04-24T04:53:03;10.10;;;3.73;;
5847;SDS011;8756;49.29324300;8.70599800;2023-04-24T04:55:30;10.37;;;3.90;;
5847;SDS011;8756;49.29324300;8.70599800;2023-04-24T04:57:56;10.00;;;4.40;;
5847;SDS011;8756;49.29324300;8.70599800;2023-04-24T05:00:22;10.87;;;3.67;;
5847;SDS011;8756;49.29324300;8.70599800;2023-04-24T05:02:50;9.50;;;3.23;;
5847;SDS011;8756;49.29324300;8.70599800;2023-04-24T05:05:16;9.63;;;3.90;;
5847;SDS011;8756;49.29324300;8.70599800;2023-04-24T05:07:43;10.73;;;4.00;;
5847;SDS011;8756;49.29324300;8.70599800;2023-04-24T05:10:09;10.90;;;3.40;;
5847;SDS011;8756;49.29324300;8.70599800;2023-04-24T05:12:35;10.07;;;4.40;;
5847;SDS011;8756;49.29324300;8.70599800;2023-04-24T05:15:01;10.27;;;4.47;;
5847;SDS011;8756;49.29324300;8.70599800;2023-04-24T05:17:28;11.30;;;4.63;;
5847;SDS011;8756;49.29324300;8.70599800;2023-04-24T05:19:53;10.37;;;4.20;;
5847;SDS011;8756;49.29324300;8.70599800;2023-04-24T05:22:19;10.77;;;4.83;;
5847;SDS011;8756;49.29324300;8.70599800;2023-04-24T05:24:46;10.83;;;3.77;;
5847;SDS011;8756;49.29324300;8.70599800;2023-04-24T05:27:12;10.63;;;3.90;;
5847;SDS011;8756;49.29324300;8.70599800;2023-04-24T05:29:38;10.70;;;4.50;;
5847;SDS011;8756;49.29324300;8.70599800;2023-04-24T05:32:05;10.27;;;4.40;;
5847;SDS011;8756;49.29324300;8.70599800;2023-04-24T05:34:31;11.00;;;4.53;;
5847;SDS011;8756;49.29324300;8.70599800;2023-04-24T05:36:57;11.23;;;4.27;;
5847;SDS011;8756;49.29324300;8.70599800;2023-04-24T05:39:23;10.87;;;4.90;;
5847;SDS011;8756;49.29324300;8.70599800;2023-04-24T05:41:50;10.23;;;4.23;;
5847;SDS011;8756;49.29324300;8.70599800;2023-04-24T05:44:16;11.73;;;4.50;;
5847;SDS011;8756;49.29324300;8.70599800;2023-04-24T05:46:41;10.37;;;3.90;;
5847;SDS011;8756;49.29324300;8.70599800;2023-04-24T05:49:07;13.23;;;4.90;;
5847;SDS011;8756;49.29324300;8.70599800;2023-04-24T05:51:33;10.90;;;4.10;;
5847;SDS011;8756;49.29324300;8.70599800;2023-04-24T05:53:59;11.50;;;4.13;;
5847;SDS011;8756;49.29324300;8.70599800;2023-04-24T05:56:24;10.10;;;3.80;;
5847;SDS011;8756;49.29324300;8.70599800;2023-04-24T05:58:50;10.70;;;4.60;;
5847;SDS011;8756;49.29324300;8.70599800;2023-04-24T06:01:16;10.97;;;4.83;;
5847;SDS011;8756;49.29324300;8.70599800;2023-04-24T06:03:42;11.77;;;4.80;;
5847;SDS011;8756;49.29324300;8.70599800;2023-04-24T06:06:07;10.50;;;4.50;;
5847;SDS011;8756;49.29324300;8.70599800;2023-04-24T06:08:34;11.63;;;4.20;;
5847;SDS011;8756;49.29324300;8.70599800;2023-04-24T06:11:07;10.30;;;3.90;;
5847;SDS011;8756;49.29324300;8.70599800;2023-04-24T06:13:33;10.10;;;3.60;;
5847;SDS011;8756;49.29324300;8.70599800;2023-04-24T06:15:59;10.70;;;4.33;;
5847;SDS011;8756;49.29324300;8.70599800;2023-04-24T06:18:24;10.60;;;3.90;;
5847;SDS011;8756;49.29324300;8.70599800;2023-04-24T06:20:50;9.97;;;3.60;;
5847;SDS011;8756;49.29324300;8.70599800;2023-04-24T06:23:16;12.43;;;4.83;;
5847;SDS011;8756;49.29324300;8.70599800;2023-04-24T06:25:42;10.50;;;3.80;;
5847;SDS011;8756;49.29324300;8.70599800;2023-04-24T06:28:08;10.90;;;4.20;;
5847;SDS011;8756;49.29324300;8.70599800;2023-04-24T06:30:33;10.40;;;4.43;;
5847;SDS011;8756;49.29324300;8.70599800;2023-04-24T06:32:59;12.90;;;4.20;;
5847;SDS011;8756;49.29324300;8.70599800;2023-04-24T06:35:25;11.47;;;4.13;;
5847;SDS011;8756;49.29324300;8.70599800;2023-04-24T06:37:51;9.50;;;3.20;;
5847;SDS011;8756;49.29324300;8.70599800;2023-04-24T06:40:16;9.43;;;3.50;;
5847;SDS011;8756;49.29324300;8.70599800;2023-04-24T06:42:43;10.90;;;4.63;;
5847;SDS011;8756;49.29324300;8.70599800;2023-04-24T06:45:09;10.70;;;4.00;;
5847;SDS011;8756;49.29324300;8.70599800;2023-04-24T06:47:35;10.30;;;4.23;;
5847;SDS011;8756;49.29324300;8.70599800;2023-04-24T06:50:01;10.53;;;4.13;;
5847;SDS011;8756;49.29324300;8.70599800;2023-04-24T06:52:27;9.77;;;3.47;;
5847;SDS011;8756;49.29324300;8.70599800;2023-04-24T06:54:52;11.00;;;4.60;;
5847;SDS011;8756;49.29324300;8.70599800;2023-04-24T06:57:30;14.63;;;3.93;;
5847;SDS011;8756;49.29324300;8.70599800;2023-04-24T06:59:56;10.23;;;3.97;;
5847;SDS011;8756;49.29324300;8.70599800;2023-04-24T07:02:22;9.53;;;3.60;;
5847;SDS011;8756;49.29324300;8.70599800;2023-04-24T07:04:47;9.57;;;3.80;;
5847;SDS011;8756;49.29324300;8.70599800;2023-04-24T07:07:13;10.03;;;3.10;;
5847;SDS011;8756;49.29324300;8.70599800;2023-04-24T07:09:39;10.30;;;4.43;;
5847;SDS011;8756;49.29324300;8.70599800;2023-04-24T07:12:09;9.97;;;3.50;;
5847;SDS011;8756;49.29324300;8.70599800;2023-04-24T07:14:35;9.57;;;3.40;;
5847;SDS011;8756;49.29324300;8.70599800;2023-04-24T07:17:02;11.23;;;4.20;;
5847;SDS011;8756;49.29324300;8.70599800;2023-04-24T07:19:31;9.73;;;3.30;;
5847;SDS011;8756;49.29324300;8.70599800;2023-04-24T07:21:59;12.27;;;3.90;;
5847;SDS011;8756;49.29324300;8.70599800;2023-04-24T07:24:25;9.80;;;3.80;;
5847;SDS011;8756;49.29324300;8.70599800;2023-04-24T07:26:51;9.57;;;3.87;;
5847;SDS011;8756;49.29324300;8.70599800;2023-04-24T07:29:18;9.77;;;3.80;;
5847;SDS011;8756;49.29324300;8.70599800;2023-04-24T07:31:43;9.43;;;3.37;;
5847;SDS011;8756;49.29324300;8.70599800;2023-04-24T07:34:09;9.87;;;3.50;;
5847;SDS011;8756;49.29324300;8.70599800;2023-04-24T07:36:35;9.60;;;3.13;;
5847;SDS011;8756;49.29324300;8.70599800;2023-04-24T07:39:03;9.17;;;3.00;;
5847;SDS011;8756;49.29324300;8.70599800;2023-04-24T07:41:29;9.30;;;3.20;;
5847;SDS011;8756;49.29324300;8.70599800;2023-04-24T07:43:55;9.70;;;3.80;;
5847;SDS011;8756;49.29324300;8.70599800;2023-04-24T07:46:21;9.70;;;3.47;;
5847;SDS011;8756;49.29324300;8.70599800;2023-04-24T07:48:46;9.13;;;3.03;;
5847;SDS011;8756;49.29324300;8.70599800;2023-04-24T07:51:13;10.43;;;3.90;;
5847;SDS011;8756;49.29324300;8.70599800;2023-04-24T07:53:40;10.30;;;3.87;;
5847;SDS011;8756;49.29324300;8.70599800;2023-04-24T07:56:07;10.20;;;4.10;;
5847;SDS011;8756;49.29324300;8.70599800;2023-04-24T07:58:33;9.33;;;3.33;;
5847;SDS011;8756;49.29324300;8.70599800;2023-04-24T08:00:59;9.40;;;3.20;;
5847;SDS011;8756;49.29324300;8.70599800;2023-04-24T08:03:25;10.00;;;3.87;;
5847;SDS011;8756;49.29324300;8.70599800;2023-04-24T08:05:51;9.73;;;3.63;;
5847;SDS011;8756;49.29324300;8.70599800;2023-04-24T08:08:17;9.50;;;3.40;;
5847;SDS011;8756;49.29324300;8.70599800;2023-04-24T08:10:45;9.50;;;3.30;;
5847;SDS011;8756;49.29324300;8.70599800;2023-04-24T08:13:11;9.70;;;4.10;;
5847;SDS011;8756;49.29324300;8.70599800;2023-04-24T08:15:37;9.50;;;3.60;;
5847;SDS011;8756;49.29324300;8.70599800;2023-04-24T08:18:02;9.70;;;3.73;;
5847;SDS011;8756;49.29324300;8.70599800;2023-04-24T08:20:28;9.37;;;3.70;;
5847;SDS011;8756;49.29324300;8.70599800;2023-04-24T08:22:54;9.33;;;3.57;;
5847;SDS011;8756;49.29324300;8.70599800;2023-04-24T08:25:20;9.77;;;3.60;;
5847;SDS011;8756;49.29324300;8.70599800;2023-04-24T08:27:48;9.60;;;3.47;;
5847;SDS011;8756;49.29324300;8.70599800;2023-04-24T08:30:13;9.87;;;3.77;;
5847;SDS011;8756;49.29324300;8.70599800;2023-04-24T08:32:40;11.00;;;4.00;;
5847;SDS011;8756;49.29324300;8.70599800;2023-04-24T08:35:06;10.67;;;3.30;;
5847;SDS011;8756;49.29324300;8.70599800;2023-04-24T08:37:34;10.03;;;3.87;;
5847;SDS011;8756;49.29324300;8.70599800;2023-04-24T08:40:00;9.87;;;3.40;;
5847;SDS011;8756;49.29324300;8.70599800;2023-04-24T08:42:41;10.37;;;3.10;;
5847;SDS011;8756;49.29324300;8.70599800;2023-04-24T08:45:11;10.00;;;3.50;;
5847;SDS011;8756;49.29324300;8.70599800;2023-04-24T08:47:38;9.87;;;3.17;;
5847;SDS011;8756;49.29324300;8.70599800;2023-04-24T08:50:05;9.30;;;3.00;;
5847;SDS011;8756;49.29324300;8.70599800;2023-04-24T08:52:33;10.57;;;3.30;;
5847;SDS011;8756;49.29324300;8.70599800;2023-04-24T08:55:02;9.97;;;3.37;;
5847;SDS011;8756;49.29324300;8.70599800;2023-04-24T08:57:28;9.77;;;3.63;;
5847;SDS011;8756;49.29324300;8.70599800;2023-04-24T08:59:55;10.60;;;3.50;;
5847;SDS011;8756;49.29324300;8.70599800;2023-04-24T09:02:22;9.07;;;2.93;;
5847;SDS011;8756;49.29324300;8.70599800;2023-04-24T09:04:49;10.10;;;3.60;;
5847;SDS011;8756;49.29324300;8.70599800;2023-04-24T09:07:16;9.50;;;3.00;;
5847;SDS011;8756;49.29324300;8.70599800;2023-04-24T09:09:43;9.57;;;3.10;;
5847;SDS011;8756;49.29324300;8.70599800;2023-04-24T09:12:09;10.40;;;3.47;;
5847;SDS011;8756;49.29324300;8.70599800;2023-04-24T09:14:35;9.60;;;3.17;;
5847;SDS011;8756;49.29324300;8.70599800;2023-04-24T09:17:04;9.60;;;3.27;;
5847;SDS011;8756;49.29324300;8.70599800;2023-04-24T09:19:31;9.07;;;2.80;;
5847;SDS011;8756;49.29324300;8.70599800;2023-04-24T09:21:57;9.47;;;3.30;;
5847;SDS011;8756;49.29324300;8.70599800;2023-04-24T09:24:22;9.17;;;3.00;;
5847;SDS011;8756;49.29324300;8.70599800;2023-04-24T09:26:49;9.27;;;2.70;;
5847;SDS011;8756;49.29324300;8.70599800;2023-04-24T09:29:26;9.90;;;3.67;;
5847;SDS011;8756;49.29324300;8.70599800;2023-04-24T09:31:52;9.57;;;3.03;;
5847;SDS011;8756;49.29324300;8.70599800;2023-04-24T09:34:27;9.37;;;3.47;;
5847;SDS011;8756;49.29324300;8.70599800;2023-04-24T09:36:53;9.60;;;3.93;;
5847;SDS011;8756;49.29324300;8.70599800;2023-04-24T09:39:19;10.60;;;3.60;;
5847;SDS011;8756;49.29324300;8.70599800;2023-04-24T09:41:49;9.53;;;3.20;;
5847;SDS011;8756;49.29324300;8.70599800;2023-04-24T09:44:21;9.80;;;3.13;;
5847;SDS011;8756;49.29324300;8.70599800;2023-04-24T09:46:53;9.80;;;3.40;;
5847;SDS011;8756;49.29324300;8.70599800;2023-04-24T09:49:23;10.00;;;3.87;;
5847;SDS011;8756;49.29324300;8.70599800;2023-04-24T09:51:51;10.67;;;3.80;;
5847;SDS011;8756;49.29324300;8.70599800;2023-04-24T09:54:18;11.10;;;3.70;;
5847;SDS011;8756;49.29324300;8.70599800;2023-04-24T09:56:47;9.53;;;3.03;;
5847;SDS011;8756;49.29324300;8.70599800;2023-04-24T09:59:15;9.57;;;3.40;;
5847;SDS011;8756;49.29324300;8.70599800;2023-04-24T10:01:43;9.27;;;3.13;;
5847;SDS011;8756;49.29324300;8.70599800;2023-04-24T10:04:17;9.90;;;3.80;;
5847;SDS011;8756;49.29324300;8.70599800;2023-04-24T10:06:48;10.20;;;3.53;;
5847;SDS011;8756;49.29324300;8.70599800;2023-04-24T10:09:17;10.30;;;3.63;;
5847;SDS011;8756;49.29324300;8.70599800;2023-04-24T10:11:45;10.00;;;3.37;;
5847;SDS011;8756;49.29324300;8.70599800;2023-04-24T10:14:20;10.00;;;3.90;;
5847;SDS011;8756;49.29324300;8.70599800;2023-04-24T10:16:49;16.13;;;3.70;;
5847;SDS011;8756;49.29324300;8.70599800;2023-04-24T10:19:18;10.03;;;3.20;;
5847;SDS011;8756;49.29324300;8.70599800;2023-04-24T10:21:45;9.50;;;3.10;;
5847;SDS011;8756;49.29324300;8.70599800;2023-04-24T10:24:18;11.60;;;3.53;;
5847;SDS011;8756;49.29324300;8.70599800;2023-04-24T10:26:47;9.80;;;3.50;;
5847;SDS011;8756;49.29324300;8.70599800;2023-04-24T10:29:14;9.50;;;3.27;;
5847;SDS011;8756;49.29324300;8.70599800;2023-04-24T10:31:43;10.03;;;3.57;;
5847;SDS011;8756;49.29324300;8.70599800;2023-04-24T10:34:11;10.23;;;3.70;;
5847;SDS011;8756;49.29324300;8.70599800;2023-04-24T10:36:40;9.50;;;3.50;;
5847;SDS011;8756;49.29324300;8.70599800;2023-04-24T10:39:11;10.30;;;3.90;;
5847;SDS011;8756;49.29324300;8.70599800;2023-04-24T10:41:40;10.40;;;4.00;;
5847;SDS011;8756;49.29324300;8.70599800;2023-04-24T10:44:12;10.50;;;4.07;;
5847;SDS011;8756;49.29324300;8.70599800;2023-04-24T10:46:43;13.40;;;4.10;;
5847;SDS011;8756;49.29324300;8.70599800;2023-04-24T10:49:12;11.20;;;3.73;;
5847;SDS011;8756;49.29324300;8.70599800;2023-04-24T10:51:45;10.40;;;3.47;;
5847;SDS011;8756;49.29324300;8.70599800;2023-04-24T10:54:25;11.20;;;4.10;;
5847;SDS011;8756;49.29324300;8.70599800;2023-04-24T10:59:45;10.30;;;4.03;;
5847;SDS011;8756;49.29324300;8.70599800;2023-04-24T11:02:16;12.00;;;4.47;;
5847;SDS011;8756;49.29324300;8.70599800;2023-04-24T11:04:43;13.50;;;4.00;;
5847;SDS011;8756;49.29324300;8.70599800;2023-04-24T11:07:10;10.93;;;3.90;;
5847;SDS011;8756;49.29324300;8.70599800;2023-04-24T11:09:36;14.47;;;5.00;;
5847;SDS011;8756;49.29324300;8.70599800;2023-04-24T11:12:09;10.60;;;4.07;;
5847;SDS011;8756;49.29324300;8.70599800;2023-04-24T11:17:27;11.23;;;5.13;;
5847;SDS011;8756;49.29324300;8.70599800;2023-04-24T11:20:03;11.60;;;3.63;;
5847;SDS011;8756;49.29324300;8.70599800;2023-04-24T11:22:32;10.97;;;4.30;;
5847;SDS011;8756;49.29324300;8.70599800;2023-04-24T11:25:00;9.97;;;3.90;;
5847;SDS011;8756;49.29324300;8.70599800;2023-04-24T11:27:32;11.10;;;3.83;;
5847;SDS011;8756;49.29324300;8.70599800;2023-04-24T11:30:08;12.00;;;3.80;;
5847;SDS011;8756;49.29324300;8.70599800;2023-04-24T11:32:36;10.40;;;3.70;;
5847;SDS011;8756;49.29324300;8.70599800;2023-04-24T11:37:47;10.60;;;3.97;;
5847;SDS011;8756;49.29324300;8.70599800;2023-04-24T11:40:14;11.10;;;4.67;;
5847;SDS011;8756;49.29324300;8.70599800;2023-04-24T11:42:43;10.33;;;3.90;;
5847;SDS011;8756;49.29324300;8.70599800;2023-04-24T11:45:15;10.73;;;3.60;;
5847;SDS011;8756;49.29324300;8.70599800;2023-04-24T11:47:49;11.90;;;3.60;;
5847;SDS011;8756;49.29324300;8.70599800;2023-04-24T11:50:16;10.97;;;3.80;;
5847;SDS011;8756;49.29324300;8.70599800;2023-04-24T11:52:45;10.10;;;4.10;;
5847;SDS011;8756;49.29324300;8.70599800;2023-04-24T11:57:48;10.90;;;3.87;;
5847;SDS011;8756;49.29324300;8.70599800;2023-04-24T12:00:19;11.13;;;4.10;;
5847;SDS011;8756;49.29324300;8.70599800;2023-04-24T12:02:47;12.80;;;4.30;;
5847;SDS011;8756;49.29324300;8.70599800;2023-04-24T12:07:51;9.90;;;3.60;;
5847;SDS011;8756;49.29324300;8.70599800;2023-04-24T12:10:22;11.80;;;3.93;;
5847;SDS011;8756;49.29324300;8.70599800;2023-04-24T12:12:50;11.50;;;4.00;;
5847;SDS011;8756;49.29324300;8.70599800;2023-04-24T12:15:17;9.77;;;3.40;;
5847;SDS011;8756;49.29324300;8.70599800;2023-04-24T12:17:44;12.43;;;4.17;;
5847;SDS011;8756;49.29324300;8.70599800;2023-04-24T12:20:11;10.17;;;3.90;;
5847;SDS011;8756;49.29324300;8.70599800;2023-04-24T12:22:54;10.00;;;3.60;;
5847;SDS011;8756;49.29324300;8.70599800;2023-04-24T12:25:26;11.70;;;4.00;;
5847;SDS011;8756;49.29324300;8.70599800;2023-04-24T12:30:28;12.30;;;3.97;;
5847;SDS011;8756;49.29324300;8.70599800;2023-04-24T12:32:57;10.50;;;3.63;;
5847;SDS011;8756;49.29324300;8.70599800;2023-04-24T12:35:25;11.80;;;4.23;;
5847;SDS011;8756;49.29324300;8.70599800;2023-04-24T12:38:05;12.50;;;3.80;;
5847;SDS011;8756;49.29324300;8.70599800;2023-04-24T12:40:35;12.37;;;4.10;;
5847;SDS011;8756;49.29324300;8.70599800;2023-04-24T12:43:01;12.20;;;3.87;;
5847;SDS011;8756;49.29324300;8.70599800;2023-04-24T12:45:26;10.13;;;3.47;;
5847;SDS011;8756;49.29324300;8.70599800;2023-04-24T12:47:53;10.30;;;3.77;;
5847;SDS011;8756;49.29324300;8.70599800;2023-04-24T12:50:18;10.50;;;3.57;;
5847;SDS011;8756;49.29324300;8.70599800;2023-04-24T12:52:44;11.13;;;4.00;;
5847;SDS011;8756;49.29324300;8.70599800;2023-04-24T12:55:10;11.10;;;3.70;;
5847;SDS011;8756;49.29324300;8.70599800;2023-04-24T12:57:38;11.13;;;3.77;;
5847;SDS011;8756;49.29324300;8.70599800;2023-04-24T13:00:05;10.87;;;4.03;;
5847;SDS011;8756;49.29324300;8.70599800;2023-04-24T13:02:32;10.00;;;3.47;;
5847;SDS011;8756;49.29324300;8.70599800;2023-04-24T13:04:59;10.60;;;4.27;;
5847;SDS011;8756;49.29324300;8.70599800;2023-04-24T13:07:25;10.33;;;3.50;;
5847;SDS011;8756;49.29324300;8.70599800;2023-04-24T13:09:52;11.65;;;3.80;;
5847;SDS011;8756;49.29324300;8.70599800;2023-04-24T13:12:20;9.77;;;3.50;;
5847;SDS011;8756;49.29324300;8.70599800;2023-04-24T13:14:46;10.20;;;4.07;;
5847;SDS011;8756;49.29324300;8.70599800;2023-04-24T13:17:12;11.20;;;3.43;;
5847;SDS011;8756;49.29324300;8.70599800;2023-04-24T13:19:40;11.03;;;4.00;;
5847;SDS011;8756;49.29324300;8.70599800;2023-04-24T13:22:11;10.50;;;3.83;;